createdAt,value
2022-08-25T00:00:23.221Z,7.05
2022-08-25T00:02:56.159Z,7.15
2022-08-25T00:05:33.576Z,6.55
2022-08-25T00:08:08.680Z,6.28
2022-08-25T00:10:41.866Z,6.13
2022-08-25T00:13:12.732Z,6.32
2022-08-25T00:15:42.817Z,6.38
2022-08-25T00:18:19.589Z,6.53
2022-08-25T00:20:50.746Z,6.57
2022-08-25T00:23:23.568Z,6.10
2022-08-25T00:25:55.373Z,6.40
2022-08-25T00:28:25.425Z,6.75
2022-08-25T00:30:55.609Z,5.63
2022-08-25T00:33:26.367Z,7.47
2022-08-25T00:35:57.287Z,6.22
2022-08-25T00:38:30.553Z,6.45
2022-08-25T00:41:11.437Z,6.13
2022-08-25T00:43:51.929Z,5.88
2022-08-25T00:46:24.318Z,5.53
2022-08-25T00:49:00.748Z,5.20
2022-08-25T00:51:38.125Z,5.45
2022-08-25T00:54:13.519Z,5.40
2022-08-25T00:56:44.715Z,5.15
2022-08-25T00:59:16.516Z,4.63
2022-08-25T01:01:46.683Z,5.10
2022-08-25T01:04:16.798Z,5.30
2022-08-25T01:06:48.083Z,5.15
2022-08-25T01:09:22.391Z,4.63
2022-08-25T01:11:53.008Z,5.43
2022-08-25T01:14:24.624Z,4.88
2022-08-25T01:16:58.279Z,5.00
2022-08-25T01:19:29.854Z,5.88
2022-08-25T01:22:03.199Z,5.20
2022-08-25T01:24:41.536Z,4.82
2022-08-25T01:27:12.630Z,5.43
2022-08-25T01:29:43.094Z,5.63
2022-08-25T01:32:16.061Z,5.88
2022-08-25T01:34:47.959Z,6.57
2022-08-25T01:37:21.946Z,5.88
2022-08-25T01:39:52.178Z,6.30
2022-08-25T01:42:32.037Z,7.60
2022-08-25T01:45:02.085Z,6.50
2022-08-25T01:47:32.468Z,6.03
2022-08-25T01:50:02.545Z,6.40
2022-08-25T01:52:40.155Z,6.95
2022-08-25T01:55:11.029Z,6.38
2022-08-25T01:57:41.152Z,6.28
2022-08-25T02:00:15.151Z,7.07
2022-08-25T02:02:45.838Z,7.30
2022-08-25T02:05:20.383Z,5.57
2022-08-25T02:07:56.233Z,6.45
2022-08-25T02:10:26.293Z,5.57
2022-08-25T02:12:56.353Z,5.97
2022-08-25T02:15:26.602Z,5.15
2022-08-25T02:17:57.332Z,5.90
2022-08-25T02:20:28.069Z,5.97
2022-08-25T02:23:00.724Z,5.43
2022-08-25T02:25:31.117Z,5.57
2022-08-25T02:28:01.713Z,5.25
2022-08-25T02:30:31.891Z,5.28
2022-08-25T02:33:04.066Z,5.13
2022-08-25T02:35:34.239Z,5.95
2022-08-25T02:38:07.943Z,5.30
2022-08-25T02:43:08.629Z,5.50
2022-08-25T02:45:38.974Z,5.55
2022-08-25T02:48:09.175Z,7.35
2022-08-25T02:50:40.790Z,5.57
2022-08-25T02:53:13.508Z,5.68
2022-08-25T02:55:43.650Z,6.38
2022-08-25T02:58:13.852Z,5.68
2022-08-25T03:00:44.560Z,6.63
2022-08-25T03:03:15.745Z,6.32
2022-08-25T03:05:45.905Z,6.43
2022-08-25T03:08:18.986Z,6.30
2022-08-25T03:10:49.102Z,6.55
2022-08-25T03:13:22.102Z,6.20
2022-08-25T03:15:52.401Z,5.68
2022-08-25T03:18:23.216Z,5.97
2022-08-25T03:20:54.732Z,6.57
2022-08-25T03:23:27.415Z,6.97
2022-08-25T03:26:10.279Z,6.17
2022-08-25T03:28:40.375Z,6.63
2022-08-25T03:31:11.547Z,6.53
2022-08-25T03:33:41.823Z,5.50
2022-08-25T03:36:14.747Z,6.32
2022-08-25T03:38:47.558Z,6.07
2022-08-25T03:41:20.146Z,5.55
2022-08-25T03:43:50.481Z,5.80
2022-08-25T03:46:22.321Z,5.75
2022-08-25T03:48:52.811Z,6.70
2022-08-25T03:51:25.271Z,5.45
2022-08-25T03:53:59.176Z,5.95
2022-08-25T03:56:29.964Z,8.02
2022-08-25T03:59:00.304Z,6.80
2022-08-25T04:01:30.791Z,5.72
2022-08-25T04:04:00.953Z,6.20
2022-08-25T04:06:31.070Z,5.65
2022-08-25T04:09:04.034Z,5.28
2022-08-25T04:11:34.093Z,6.03
2022-08-25T04:14:07.498Z,5.50
2022-08-25T04:16:38.784Z,6.38
2022-08-25T04:19:10.686Z,6.65
2022-08-25T04:21:41.795Z,5.63
2022-08-25T04:24:15.999Z,5.25
2022-08-25T04:26:48.531Z,5.05
2022-08-25T04:29:23.785Z,6.25
2022-08-25T04:31:55.306Z,6.50
2022-08-25T04:34:29.447Z,7.13
2022-08-25T04:37:01.965Z,6.28
2022-08-25T04:39:37.488Z,6.28
2022-08-25T04:42:08.405Z,5.50
2022-08-25T04:44:38.489Z,6.00
2022-08-25T04:47:08.819Z,5.70
2022-08-25T04:49:38.904Z,6.57
2022-08-25T04:52:14.562Z,5.82
2022-08-25T04:54:47.806Z,5.90
2022-08-25T04:57:17.909Z,6.30
2022-08-25T04:59:47.935Z,6.47
2022-08-25T05:02:18.042Z,6.03
2022-08-25T05:04:48.172Z,6.32
2022-08-25T05:07:18.220Z,7.10
2022-08-25T05:09:50.859Z,7.18
2022-08-25T05:12:21.045Z,6.40
2022-08-25T05:14:51.292Z,6.65
2022-08-25T05:17:21.345Z,6.18
2022-08-25T05:19:52.647Z,6.20
2022-08-25T05:22:22.746Z,6.43
2022-08-25T05:24:55.681Z,5.43
2022-08-25T05:27:25.780Z,5.38
2022-08-25T05:29:56.047Z,5.95
2022-08-25T05:32:26.121Z,5.43
2022-08-25T05:34:56.508Z,5.68
2022-08-25T05:37:26.889Z,5.63
2022-08-25T05:39:59.579Z,6.70
2022-08-25T05:42:30.388Z,5.83
2022-08-25T05:45:00.492Z,5.60
2022-08-25T05:47:30.701Z,5.28
2022-08-25T05:50:01.445Z,5.90
2022-08-25T05:52:31.687Z,5.55
2022-08-25T05:55:04.442Z,6.03
2022-08-25T05:57:36.270Z,5.38
2022-08-25T06:00:07.888Z,5.80
2022-08-25T06:02:41.481Z,5.18
2022-08-25T06:05:11.976Z,5.90
2022-08-25T06:07:45.544Z,4.72
2022-08-25T06:10:19.459Z,5.20
2022-08-25T06:12:50.611Z,4.57
2022-08-25T06:15:23.611Z,4.70
2022-08-25T06:17:58.981Z,5.32
2022-08-25T06:20:33.414Z,5.75
2022-08-25T06:23:03.540Z,4.80
2022-08-25T06:25:36.328Z,5.43
2022-08-25T06:28:07.119Z,5.15
2022-08-25T06:30:37.351Z,5.13
2022-08-25T06:33:07.513Z,5.25
2022-08-25T06:35:38.294Z,5.00
2022-08-25T06:38:08.389Z,5.45
2022-08-25T06:40:41.471Z,4.68
2022-08-25T06:43:11.598Z,4.90
2022-08-25T06:45:41.933Z,4.57
2022-08-25T06:48:12.071Z,4.68
2022-08-25T06:50:42.626Z,4.78
2022-08-25T06:53:12.790Z,4.03
2022-08-25T06:55:45.419Z,5.15
2022-08-25T06:58:15.641Z,5.28
2022-08-25T07:00:45.858Z,4.70
2022-08-25T07:03:17.349Z,4.90
2022-08-25T07:05:54.326Z,4.75
2022-08-25T07:08:24.532Z,5.28
2022-08-25T07:10:57.402Z,4.82
2022-08-25T07:13:30.140Z,4.90
2022-08-25T07:16:00.276Z,4.80
2022-08-25T07:18:31.182Z,4.63
2022-08-25T07:21:01.441Z,4.90
2022-08-25T07:23:32.359Z,5.20
2022-08-25T07:26:36.307Z,5.38
2022-08-25T07:29:05.266Z,5.18
2022-08-25T07:31:38.488Z,4.60
2022-08-25T07:34:21.145Z,4.85
2022-08-25T07:36:51.322Z,4.78
2022-08-25T07:39:22.018Z,4.30
2022-08-25T07:41:55.517Z,5.18
2022-08-25T07:44:28.172Z,5.28
2022-08-25T07:46:59.186Z,4.93
2022-08-25T07:49:35.779Z,4.90
2022-08-25T07:52:09.797Z,4.60
2022-08-25T07:54:40.926Z,5.15
2022-08-25T07:57:14.002Z,4.90
2022-08-25T07:59:44.823Z,5.03
2022-08-25T08:02:18.172Z,5.53
2022-08-25T08:04:50.236Z,5.22
2022-08-25T08:07:22.810Z,5.00
2022-08-25T08:10:18.964Z,4.70
2022-08-25T08:12:46.214Z,5.85
2022-08-25T08:15:16.516Z,6.72
2022-08-25T08:17:46.737Z,4.88
2022-08-25T08:20:23.382Z,4.57
2022-08-25T08:22:53.856Z,4.90
2022-08-25T08:25:26.628Z,4.72
2022-08-25T08:28:00.824Z,4.57
2022-08-25T08:30:31.397Z,4.88
2022-08-25T08:33:11.293Z,4.93
2022-08-25T08:35:43.173Z,4.25
2022-08-25T08:38:18.424Z,4.40
2022-08-25T08:41:15.964Z,4.95
2022-08-25T08:43:51.876Z,4.80
2022-08-25T08:46:26.129Z,3.72
2022-08-25T08:49:05.006Z,3.63
2022-08-25T08:51:41.066Z,4.90
2022-08-25T08:54:18.675Z,5.07
2022-08-25T08:56:53.510Z,5.25
2022-08-25T08:59:30.915Z,4.55
2022-08-25T09:02:03.183Z,5.00
2022-08-25T09:04:38.416Z,4.50
2022-08-25T09:07:16.346Z,4.30
2022-08-25T09:09:48.253Z,3.85
2022-08-25T09:12:33.634Z,4.05
2022-08-25T09:15:17.644Z,4.72
2022-08-25T09:18:08.694Z,5.20
2022-08-25T09:20:57.840Z,4.55
2022-08-25T09:23:42.280Z,4.05
2022-08-25T09:26:27.814Z,3.35
2022-08-25T09:29:06.366Z,3.10
2022-08-25T09:31:51.625Z,3.55
2022-08-25T09:34:25.027Z,3.40
2022-08-25T09:37:05.969Z,3.97
2022-08-25T09:39:39.194Z,3.85
2022-08-25T09:42:09.708Z,3.88
2022-08-25T09:44:44.612Z,3.50
2022-08-25T09:53:59.326Z,3.75
2022-08-25T09:56:31.971Z,3.22
2022-08-25T09:59:34.102Z,3.40
2022-08-25T10:02:08.393Z,2.97
2022-08-25T10:04:41.324Z,3.33
2022-08-25T10:09:59.982Z,3.30
2022-08-25T10:12:36.911Z,3.60
2022-08-25T10:15:29.198Z,3.95
2022-08-25T10:18:26.177Z,3.60
2022-08-25T10:21:09.575Z,3.60
2022-08-25T10:23:44.997Z,3.67
2022-08-25T10:26:34.899Z,3.70
2022-08-25T10:29:19.063Z,3.92
2022-08-25T10:38:42.909Z,3.75
2022-08-25T10:41:33.055Z,4.18
2022-08-25T10:44:28.557Z,3.55
2022-08-25T10:47:10.119Z,3.13
2022-08-25T10:49:49.938Z,4.30
2022-08-25T10:52:26.938Z,3.75
2022-08-25T10:55:10.306Z,3.67
2022-08-25T10:57:50.782Z,3.80
2022-08-25T11:03:16.323Z,4.07
2022-08-25T11:05:54.016Z,3.80
2022-08-25T11:08:35.625Z,3.67
2022-08-25T11:11:12.551Z,4.20
2022-08-25T11:13:50.402Z,3.10
2022-08-25T11:16:32.466Z,4.07
2022-08-25T11:19:08.654Z,3.20
2022-08-25T11:21:47.593Z,3.58
2022-08-25T11:24:37.913Z,4.97
2022-08-25T11:27:13.746Z,3.70
2022-08-25T11:30:06.094Z,3.40
2022-08-25T11:32:37.996Z,4.50
2022-08-25T11:35:12.284Z,2.90
2022-08-25T11:37:56.673Z,3.20
2022-08-25T11:40:41.500Z,3.40
2022-08-25T11:43:29.070Z,3.42
2022-08-25T11:46:22.687Z,4.35
2022-08-25T11:49:10.888Z,3.78
2022-08-25T11:54:22.505Z,3.85
2022-08-25T11:56:59.779Z,4.05
2022-08-25T12:00:05.573Z,3.63
2022-08-25T12:02:44.056Z,3.47
2022-08-25T12:05:50.042Z,3.70
2022-08-25T12:08:57.538Z,3.13
2022-08-25T12:11:46.856Z,3.50
2022-08-25T12:14:41.213Z,3.15
2022-08-25T12:17:24.603Z,3.95
2022-08-25T12:20:01.474Z,3.67
2022-08-25T12:22:57.034Z,3.58
2022-08-25T12:25:43.468Z,4.45
2022-08-25T12:28:29.561Z,4.63
2022-08-25T12:31:14.745Z,4.10
2022-08-25T12:33:55.642Z,4.18
2022-08-25T12:36:34.592Z,4.28
2022-08-25T12:39:19.862Z,3.90
2022-08-25T12:41:59.244Z,4.40
2022-08-25T12:44:41.161Z,4.10
2022-08-25T12:47:31.976Z,3.35
2022-08-25T12:50:32.665Z,3.85
2022-08-25T12:53:14.414Z,3.63
2022-08-25T12:55:54.700Z,4.00
2022-08-25T12:58:38.626Z,4.25
2022-08-25T13:01:35.498Z,4.40
2022-08-25T13:04:34.943Z,3.83
2022-08-25T13:07:26.498Z,3.95
2022-08-25T13:10:20.859Z,3.45
2022-08-25T13:12:57.762Z,3.90
2022-08-25T13:15:45.233Z,4.03
2022-08-25T13:18:23.164Z,3.50
2022-08-25T13:23:30.223Z,3.95
2022-08-25T13:26:03.142Z,4.15
2022-08-25T13:28:35.322Z,4.00
2022-08-25T13:31:09.939Z,3.83
2022-08-25T13:33:40.821Z,4.57
2022-08-25T13:36:32.598Z,4.18
2022-08-25T13:39:15.315Z,4.18
2022-08-25T13:41:55.579Z,4.32
2022-08-25T13:44:28.801Z,4.43
2022-08-25T13:47:09.983Z,4.03
2022-08-25T13:49:41.834Z,4.18
2022-08-25T13:52:30.168Z,3.45
2022-08-25T13:55:04.646Z,3.55
2022-08-25T13:57:37.671Z,3.67
2022-08-25T14:00:12.663Z,3.30
2022-08-25T14:02:45.484Z,3.83
2022-08-25T14:05:36.010Z,4.32
2022-08-25T14:08:25.280Z,4.13
2022-08-25T14:11:14.698Z,3.65
2022-08-25T14:13:49.358Z,4.53
2022-08-25T14:16:25.457Z,3.30
2022-08-25T14:18:58.832Z,3.42
2022-08-25T14:21:32.961Z,4.05
2022-08-25T14:24:06.830Z,4.28
2022-08-25T14:26:54.472Z,4.18
2022-08-25T14:29:27.827Z,3.65
2022-08-25T14:32:00.035Z,3.25
2022-08-25T14:34:36.811Z,4.53
2022-08-25T14:37:15.553Z,3.50
2022-08-25T14:39:46.202Z,3.85
2022-08-25T14:42:17.193Z,3.78
2022-08-25T14:44:50.865Z,5.20
2022-08-25T14:47:22.231Z,3.88
2022-08-25T14:49:54.402Z,3.67
2022-08-25T14:52:29.949Z,4.03
2022-08-25T14:55:00.290Z,3.90
2022-08-25T14:57:38.489Z,3.65
2022-08-25T15:00:13.850Z,3.17
2022-08-25T15:02:49.968Z,3.65
2022-08-25T15:05:28.467Z,3.78
2022-08-25T15:08:12.431Z,3.20
2022-08-25T15:10:43.550Z,3.50
2022-08-25T15:13:14.308Z,3.65
2022-08-25T15:15:52.762Z,3.65
2022-08-25T15:18:24.255Z,3.42
2022-08-25T15:20:57.695Z,4.65
2022-08-25T15:23:27.954Z,3.85
2022-08-25T15:25:59.384Z,4.38
2022-08-25T15:28:33.731Z,3.25
2022-08-25T15:31:06.735Z,3.53
2022-08-25T15:33:38.639Z,3.17
2022-08-25T15:36:11.393Z,3.75
2022-08-25T15:38:46.872Z,3.67
2022-08-25T15:41:17.536Z,3.90
2022-08-25T15:43:47.710Z,4.30
2022-08-25T15:46:27.992Z,4.35
2022-08-25T15:48:59.682Z,4.85
2022-08-25T15:51:30.567Z,3.97
2022-08-25T15:54:00.931Z,4.75
2022-08-25T15:56:34.091Z,4.78
2022-08-25T15:59:08.686Z,3.47
2022-08-25T16:01:41.562Z,4.05
2022-08-25T16:04:11.916Z,3.63
2022-08-25T16:06:42.272Z,3.75
2022-08-25T16:09:12.495Z,3.65
2022-08-25T16:11:43.590Z,3.88
2022-08-25T16:14:15.222Z,4.18
2022-08-25T16:16:48.680Z,3.67
2022-08-25T16:19:18.845Z,3.72
2022-08-25T16:21:49.114Z,3.75
2022-08-25T16:24:20.396Z,4.07
2022-08-25T16:26:51.751Z,3.63
2022-08-25T16:29:22.856Z,3.60
2022-08-25T16:31:55.660Z,3.60
2022-08-25T16:34:30.803Z,4.03
2022-08-25T16:37:02.064Z,4.05
2022-08-25T16:39:32.364Z,4.22
2022-08-25T16:42:02.867Z,3.40
2022-08-25T16:44:34.500Z,3.75
2022-08-25T16:47:09.573Z,4.28
2022-08-25T16:49:44.456Z,5.57
2022-08-25T16:52:28.544Z,3.55
2022-08-25T16:55:11.889Z,3.75
2022-08-25T16:57:43.427Z,4.88
2022-08-25T17:00:17.661Z,4.93
2022-08-25T17:02:51.727Z,4.18
2022-08-25T17:05:22.153Z,4.50
2022-08-25T17:08:05.031Z,3.63
2022-08-25T17:10:38.765Z,4.22
2022-08-25T17:13:09.175Z,3.85
2022-08-25T17:15:43.412Z,4.85
2022-08-25T17:18:16.602Z,4.25
2022-08-25T17:20:48.768Z,4.38
2022-08-25T17:23:21.455Z,4.15
2022-08-25T17:25:53.062Z,5.00
2022-08-25T17:28:23.701Z,4.60
2022-08-25T17:30:55.566Z,4.05
2022-08-25T17:33:29.101Z,4.60
2022-08-25T17:36:00.613Z,4.22
2022-08-25T17:38:33.886Z,4.28
2022-08-25T17:41:06.978Z,4.32
2022-08-25T17:43:40.143Z,5.20
2022-08-25T17:46:11.832Z,4.47
2022-08-25T17:48:45.695Z,4.57
2022-08-25T17:51:18.541Z,4.55
2022-08-25T17:53:48.799Z,4.90
2022-08-25T17:56:22.403Z,5.07
2022-08-25T17:58:55.242Z,4.80
2022-08-25T18:01:27.841Z,5.43
2022-08-25T18:04:01.852Z,5.00
2022-08-25T18:06:32.641Z,5.40
2022-08-25T18:09:06.296Z,4.82
2022-08-25T18:11:36.497Z,5.57
2022-08-25T18:14:06.803Z,4.45
2022-08-25T18:16:42.138Z,3.97
2022-08-25T18:19:16.847Z,5.03
2022-08-25T18:21:47.269Z,5.00
2022-08-25T18:24:17.624Z,5.57
2022-08-25T18:26:49.510Z,5.00
2022-08-25T18:29:20.295Z,5.45
2022-08-25T18:31:53.663Z,4.30
2022-08-25T18:34:30.430Z,4.65
2022-08-25T18:37:21.690Z,4.15
2022-08-25T18:40:06.809Z,4.88
2022-08-25T18:42:40.546Z,4.38
2022-08-25T18:45:12.798Z,4.22
2022-08-25T18:47:43.219Z,4.60
2022-08-25T18:50:16.098Z,4.20
2022-08-25T18:52:46.301Z,4.28
2022-08-25T18:55:16.612Z,5.15
2022-08-25T18:57:47.584Z,4.03
2022-08-25T19:00:23.710Z,3.83
2022-08-25T19:02:57.509Z,4.60
2022-08-25T19:05:34.633Z,4.20
2022-08-25T19:08:08.874Z,4.55
2022-08-25T19:10:40.401Z,4.13
2022-08-25T19:13:12.591Z,4.00
2022-08-25T19:15:44.191Z,4.35
2022-08-25T19:18:16.043Z,4.28
2022-08-25T19:20:50.303Z,4.65
2022-08-25T19:23:22.772Z,5.93
2022-08-25T19:25:53.017Z,4.13
2022-08-25T19:28:23.342Z,4.60
2022-08-25T19:30:54.325Z,4.13
2022-08-25T19:33:42.699Z,4.45
2022-08-25T19:36:19.019Z,4.07
2022-08-25T19:38:54.054Z,3.38
2022-08-25T19:41:25.047Z,5.28
2022-08-25T19:43:57.444Z,4.65
2022-08-25T19:46:32.728Z,4.43
2022-08-25T19:49:08.930Z,4.20
2022-08-25T19:51:45.455Z,4.10
2022-08-25T19:54:17.327Z,5.30
2022-08-25T19:56:54.305Z,4.70
2022-08-25T19:59:40.689Z,4.45
2022-08-25T20:02:15.968Z,4.10
2022-08-25T20:04:49.217Z,3.97
2022-08-25T20:07:25.456Z,4.05
2022-08-25T20:09:57.680Z,4.40
2022-08-25T20:12:28.986Z,4.78
2022-08-25T20:14:59.288Z,3.95
2022-08-25T20:17:30.275Z,4.28
2022-08-25T20:20:04.547Z,4.97
2022-08-25T20:22:38.518Z,3.75
2022-08-25T20:25:13.437Z,4.13
2022-08-25T20:27:46.529Z,4.00
2022-08-25T20:30:22.210Z,4.60
2022-08-25T20:32:52.757Z,4.80
2022-08-25T20:35:26.327Z,4.10
2022-08-25T20:38:01.150Z,4.38
2022-08-25T20:40:33.678Z,5.43
2022-08-25T20:43:05.043Z,4.47
2022-08-25T20:45:43.763Z,3.65
2022-08-25T20:48:14.097Z,4.60
2022-08-25T20:50:44.395Z,4.13
2022-08-25T20:53:17.986Z,4.25
2022-08-25T20:55:48.562Z,4.82
2022-08-25T20:58:19.379Z,4.15
2022-08-25T21:00:49.945Z,3.22
2022-08-25T21:03:20.209Z,5.00
2022-08-25T21:05:54.150Z,4.78
2022-08-25T21:08:28.044Z,3.75
2022-08-25T21:13:28.705Z,4.47
2022-08-25T21:16:05.606Z,3.60
2022-08-25T21:18:36.025Z,4.28
2022-08-25T21:21:12.359Z,4.88
2022-08-25T21:23:48.225Z,4.05
2022-08-25T21:26:21.224Z,4.10
2022-08-25T21:28:51.463Z,4.50
2022-08-25T21:31:23.668Z,4.55
2022-08-25T21:33:56.528Z,4.22
2022-08-25T21:36:28.921Z,4.60
2022-08-25T21:39:03.582Z,4.25
2022-08-25T21:41:36.808Z,3.85
2022-08-25T21:44:07.334Z,3.95
2022-08-25T21:46:39.255Z,3.90
2022-08-25T21:49:10.969Z,3.93
2022-08-25T21:51:46.887Z,4.03
2022-08-25T21:54:20.848Z,4.25
2022-08-25T21:56:58.601Z,4.53
2022-08-25T21:59:31.846Z,4.63
2022-08-25T22:02:04.460Z,3.38
2022-08-25T22:04:35.710Z,4.60
2022-08-25T22:07:08.376Z,3.95
2022-08-25T22:09:41.822Z,4.47
2022-08-25T22:12:13.316Z,4.25
2022-08-25T22:14:45.802Z,4.10
2022-08-25T22:17:17.284Z,4.13
2022-08-25T22:19:54.459Z,4.43
2022-08-25T22:22:25.220Z,4.30
2022-08-25T22:24:58.832Z,4.05
2022-08-25T22:29:59.632Z,4.15
2022-08-25T22:32:30.610Z,3.50
2022-08-25T22:35:00.818Z,4.22
2022-08-25T22:37:31.183Z,4.22
2022-08-25T22:40:07.720Z,3.55
2022-08-25T22:42:38.062Z,3.70
2022-08-25T22:45:09.077Z,4.75
2022-08-25T22:47:39.876Z,3.90
2022-08-25T22:50:12.605Z,3.72
2022-08-25T22:52:42.821Z,4.65
2022-08-25T22:55:16.667Z,5.47
2022-08-25T22:57:47.528Z,4.57
2022-08-25T23:00:19.344Z,4.60
2022-08-25T23:02:53.301Z,4.63
2022-08-25T23:05:23.923Z,5.10
2022-08-25T23:07:54.150Z,4.65
2022-08-25T23:10:27.467Z,6.45
2022-08-25T23:12:57.676Z,4.47
2022-08-25T23:15:27.994Z,4.75
2022-08-25T23:17:58.279Z,4.03
2022-08-25T23:20:45.192Z,4.07
2022-08-25T23:23:16.701Z,4.00
2022-08-25T23:25:49.459Z,4.90
2022-08-25T23:28:20.167Z,4.63
2022-08-25T23:30:56.968Z,4.53
2022-08-25T23:33:29.883Z,4.70
2022-08-25T23:36:04.309Z,5.30
2022-08-25T23:38:34.498Z,4.72
2022-08-25T23:41:11.056Z,4.30
2022-08-25T23:43:41.256Z,4.63
2022-08-25T23:46:11.850Z,4.55
2022-08-25T23:48:42.590Z,5.47
2022-08-25T23:51:13.236Z,3.70
2022-08-25T23:53:43.393Z,5.10
2022-08-25T23:56:16.246Z,4.68
2022-08-25T23:58:46.421Z,4.13
